createdAt,value
2022-08-03T00:01:38.723Z,24.10
2022-08-03T00:04:06.190Z,24.20
2022-08-03T00:06:36.916Z,24.10
2022-08-03T00:09:04.689Z,24.10
2022-08-03T00:11:31.831Z,24.30
2022-08-03T00:13:58.975Z,24.50
2022-08-03T00:16:26.429Z,24.60
2022-08-03T00:18:53.585Z,24.80
2022-08-03T00:21:20.756Z,24.80
2022-08-03T00:23:51.286Z,24.90
2022-08-03T00:26:20.487Z,24.90
2022-08-03T00:28:47.962Z,24.80
2022-08-03T00:31:15.250Z,24.80
2022-08-03T00:33:59.221Z,24.90
2022-08-03T00:36:27.549Z,24.80
2022-08-03T00:38:54.988Z,24.80
2022-08-03T00:41:22.310Z,24.60
2022-08-03T00:43:49.571Z,24.70
2022-08-03T00:46:21.405Z,24.70
2022-08-03T00:48:52.072Z,24.70
2022-08-03T00:51:20.102Z,24.70
2022-08-03T00:53:47.327Z,24.60
2022-08-03T00:56:15.267Z,24.50
2022-08-03T00:58:43.563Z,24.50
2022-08-03T01:01:12.309Z,24.50
2022-08-03T01:03:40.097Z,24.40
2022-08-03T01:06:25.775Z,24.40
2022-08-03T01:09:09.223Z,24.40
2022-08-03T01:12:00.968Z,24.40
2022-08-03T01:14:28.011Z,24.10
2022-08-03T01:17:11.060Z,24.10
2022-08-03T01:19:59.240Z,24.20
2022-08-03T01:22:42.247Z,24.20
2022-08-03T01:25:24.614Z,24.30
2022-08-03T01:27:57.401Z,24.40
2022-08-03T01:30:25.674Z,24.60
2022-08-03T01:33:02.618Z,24.60
2022-08-03T01:35:42.352Z,24.60
2022-08-03T01:38:14.171Z,24.60
2022-08-03T01:40:41.643Z,24.50
2022-08-03T01:43:09.265Z,24.60
2022-08-03T01:45:36.603Z,24.40
2022-08-03T01:48:03.877Z,24.60
2022-08-03T01:50:31.218Z,24.20
2022-08-03T01:52:58.364Z,24.20
2022-08-03T01:55:47.043Z,24.30
2022-08-03T01:58:26.595Z,24.50
2022-08-03T02:01:05.362Z,24.00
2022-08-03T02:03:37.199Z,23.90
2022-08-03T02:09:01.635Z,24.10
2022-08-03T02:11:33.184Z,24.20
2022-08-03T02:14:18.848Z,24.20
2022-08-03T02:16:57.271Z,24.00
2022-08-03T02:22:30.635Z,24.20
2022-08-03T02:24:57.802Z,24.30
2022-08-03T02:27:26.577Z,24.30
2022-08-03T02:29:58.747Z,24.20
2022-08-03T02:32:31.588Z,24.10
2022-08-03T02:35:00.565Z,24.20
2022-08-03T02:37:31.540Z,24.20
2022-08-03T02:40:05.280Z,24.20
2022-08-03T02:42:33.155Z,24.20
2022-08-03T02:45:00.963Z,24.20
2022-08-03T02:47:28.904Z,24.10
2022-08-03T02:50:17.979Z,24.20
2022-08-03T02:53:02.995Z,24.20
2022-08-03T02:55:51.142Z,24.30
2022-08-03T02:58:26.472Z,24.20
2022-08-03T03:01:05.795Z,24.20
2022-08-03T03:03:44.591Z,24.30
2022-08-03T03:06:12.190Z,24.40
2022-08-03T03:08:59.964Z,24.20
2022-08-03T03:11:27.260Z,24.30
2022-08-03T03:13:54.397Z,24.30
2022-08-03T03:16:23.156Z,24.20
2022-08-03T03:18:50.311Z,24.20
2022-08-03T03:21:18.219Z,24.20
2022-08-03T03:23:45.370Z,24.20
2022-08-03T03:26:13.241Z,24.30
2022-08-03T03:28:40.398Z,24.30
2022-08-03T03:31:07.793Z,24.40
2022-08-03T03:33:35.301Z,24.30
2022-08-03T03:36:02.473Z,24.30
2022-08-03T03:38:29.630Z,24.20
2022-08-03T03:40:56.819Z,24.20
2022-08-03T03:43:24.183Z,24.10
2022-08-03T03:45:52.978Z,24.10
2022-08-03T03:48:20.182Z,24.10
2022-08-03T03:50:47.424Z,24.00
2022-08-03T03:53:14.726Z,24.00
2022-08-03T03:55:59.675Z,23.80
2022-08-03T03:58:29.886Z,23.80
2022-08-03T04:00:57.158Z,24.00
2022-08-03T04:03:24.370Z,23.90
2022-08-03T04:06:10.445Z,23.90
2022-08-03T04:08:56.337Z,23.70
2022-08-03T04:11:30.160Z,23.70
2022-08-03T04:14:01.917Z,23.60
2022-08-03T04:16:31.565Z,23.60
2022-08-03T04:19:02.578Z,23.20
2022-08-03T04:21:30.269Z,23.10
2022-08-03T04:23:59.398Z,23.20
2022-08-03T04:26:27.651Z,23.30
2022-08-03T04:28:55.073Z,23.40
2022-08-03T04:31:22.630Z,23.50
2022-08-03T04:33:50.946Z,23.70
2022-08-03T04:36:19.950Z,23.80
2022-08-03T04:38:54.663Z,23.80
2022-08-03T04:41:22.336Z,23.80
2022-08-03T04:43:49.517Z,23.80
2022-08-03T04:46:16.677Z,23.80
2022-08-03T04:48:45.083Z,23.80
2022-08-03T04:51:13.002Z,23.80
2022-08-03T04:53:40.280Z,23.90
2022-08-03T04:56:07.723Z,23.90
2022-08-03T04:58:34.934Z,23.80
2022-08-03T05:01:14.816Z,23.90
2022-08-03T05:06:54.981Z,23.50
2022-08-03T05:12:23.460Z,23.80
2022-08-03T05:15:00.276Z,24.00
2022-08-03T05:17:54.707Z,24.10
2022-08-03T05:20:21.883Z,24.10
2022-08-03T05:22:49.242Z,24.00
2022-08-03T05:25:19.800Z,24.00
2022-08-03T05:27:53.372Z,23.80
2022-08-03T05:30:27.156Z,23.80
2022-08-03T05:33:04.496Z,23.90
2022-08-03T05:36:02.171Z,24.00
2022-08-03T05:38:43.198Z,24.00
2022-08-03T05:41:21.591Z,24.30
2022-08-03T05:47:00.867Z,24.00
2022-08-03T05:49:28.152Z,23.80
2022-08-03T05:52:00.059Z,23.90
2022-08-03T05:54:56.053Z,24.10
2022-08-03T05:57:25.216Z,24.10
2022-08-03T05:59:57.699Z,23.90
2022-08-03T06:02:28.992Z,23.80
2022-08-03T06:04:56.390Z,23.80
2022-08-03T06:07:23.553Z,23.90
2022-08-03T06:10:35.197Z,24.20
2022-08-03T06:12:38.939Z,24.00
2022-08-03T06:15:06.274Z,23.80
2022-08-03T06:17:44.241Z,23.70
2022-08-03T06:20:11.699Z,23.90
2022-08-03T06:22:50.542Z,24.00
2022-08-03T06:25:19.437Z,23.90
2022-08-03T06:27:48.659Z,23.90
2022-08-03T06:30:21.112Z,24.20
2022-08-03T06:32:52.097Z,24.30
2022-08-03T06:35:19.954Z,24.30
2022-08-03T06:37:48.661Z,24.50
2022-08-03T06:40:16.789Z,24.50
2022-08-03T06:42:51.493Z,24.70
2022-08-03T06:45:18.659Z,24.90
2022-08-03T06:47:45.842Z,25.00
2022-08-03T06:50:17.413Z,25.00
2022-08-03T06:52:45.726Z,24.90
2022-08-03T06:55:12.991Z,25.10
2022-08-03T06:57:40.145Z,25.50
2022-08-03T07:00:12.296Z,25.60
2022-08-03T07:02:40.003Z,25.60
2022-08-03T07:05:07.719Z,25.70
2022-08-03T07:07:34.893Z,25.90
2022-08-03T07:10:02.240Z,26.00
2022-08-03T07:12:29.995Z,26.10
2022-08-03T07:15:00.699Z,26.20
2022-08-03T07:17:29.777Z,26.40
2022-08-03T07:19:57.124Z,26.70
2022-08-03T07:22:24.267Z,26.20
2022-08-03T07:24:51.394Z,26.50
2022-08-03T07:27:18.563Z,26.20
2022-08-03T07:29:45.768Z,26.30
2022-08-03T07:32:12.933Z,26.50
2022-08-03T07:34:40.078Z,26.80
2022-08-03T07:37:07.251Z,26.90
2022-08-03T07:39:35.047Z,26.80
2022-08-03T07:42:02.213Z,26.50
2022-08-03T07:44:29.379Z,27.10
2022-08-03T07:46:57.370Z,27.10
2022-08-03T07:49:25.436Z,27.00
2022-08-03T07:52:11.388Z,28.00
2022-08-03T07:54:38.594Z,29.60
2022-08-03T07:57:05.796Z,30.50
2022-08-03T07:59:56.816Z,30.60
2022-08-03T08:02:22.293Z,32.10
2022-08-03T08:04:49.511Z,32.60
2022-08-03T08:07:16.805Z,32.10
2022-08-03T08:09:45.462Z,32.70
2022-08-03T08:12:15.178Z,32.70
2022-08-03T08:14:45.782Z,32.70
2022-08-03T08:17:13.376Z,32.40
2022-08-03T08:19:41.495Z,33.40
2022-08-03T08:22:25.845Z,33.00
2022-08-03T08:24:59.069Z,34.30
2022-08-03T08:27:26.451Z,33.30
2022-08-03T08:29:55.733Z,34.40
2022-08-03T08:32:24.665Z,33.00
2022-08-03T08:34:51.849Z,34.10
2022-08-03T08:37:19.053Z,33.60
2022-08-03T08:39:46.220Z,33.10
2022-08-03T08:42:13.502Z,35.90
2022-08-03T08:44:40.715Z,36.10
2022-08-03T08:47:07.876Z,34.30
2022-08-03T08:49:49.491Z,34.10
2022-08-03T08:52:35.264Z,35.20
2022-08-03T08:55:16.667Z,34.40
2022-08-03T08:57:53.120Z,33.90
2022-08-03T09:00:20.268Z,35.60
2022-08-03T09:02:57.987Z,35.50
2022-08-03T09:05:56.145Z,34.90
2022-08-03T09:08:55.398Z,34.10
2022-08-03T09:12:13.742Z,34.20
2022-08-03T09:15:14.793Z,33.80
2022-08-03T09:17:55.615Z,34.20
2022-08-03T09:20:55.692Z,35.30
2022-08-03T09:24:04.443Z,35.30
2022-08-03T09:26:56.805Z,33.70
2022-08-03T09:29:23.982Z,34.50
2022-08-03T09:31:51.185Z,34.80
2022-08-03T09:34:18.444Z,34.50
2022-08-03T09:36:50.173Z,33.90
2022-08-03T09:39:40.704Z,32.50
2022-08-03T09:42:14.766Z,32.20
2022-08-03T09:44:46.381Z,33.20
2022-08-03T09:47:14.406Z,33.50
2022-08-03T09:49:42.551Z,33.10
2022-08-03T09:52:32.867Z,32.50
2022-08-03T09:56:05.134Z,32.30
2022-08-03T09:58:06.653Z,31.50
2022-08-03T10:00:33.997Z,31.70
2022-08-03T10:03:04.004Z,32.20
2022-08-03T10:05:34.230Z,32.20
2022-08-03T10:08:01.384Z,31.70
2022-08-03T10:10:32.063Z,32.30
2022-08-03T10:12:59.987Z,32.00
2022-08-03T10:16:21.353Z,32.50
2022-08-03T10:18:14.465Z,32.50
2022-08-03T10:20:44.355Z,32.80
2022-08-03T10:23:11.519Z,32.80
2022-08-03T10:25:39.269Z,32.80
2022-08-03T10:28:06.470Z,32.00
2022-08-03T10:30:33.621Z,32.80
2022-08-03T10:33:12.323Z,32.50
2022-08-03T10:35:58.862Z,32.90
2022-08-03T10:38:26.743Z,32.90
2022-08-03T10:40:58.783Z,31.20
2022-08-03T10:43:27.967Z,31.80
2022-08-03T10:45:55.139Z,32.40
2022-08-03T10:48:22.309Z,32.70
2022-08-03T10:50:49.675Z,33.10
2022-08-03T10:53:20.019Z,32.70
2022-08-03T10:56:05.789Z,33.10
2022-08-03T10:58:57.120Z,33.30
2022-08-03T11:01:58.799Z,33.00
2022-08-03T11:04:29.335Z,33.50
2022-08-03T11:07:16.085Z,33.70
2022-08-03T11:09:44.311Z,33.20
2022-08-03T11:12:21.325Z,33.30
2022-08-03T11:14:57.975Z,33.50
2022-08-03T11:17:25.201Z,33.50
2022-08-03T11:19:57.707Z,33.40
2022-08-03T11:22:25.670Z,33.10
2022-08-03T11:24:57.301Z,33.40
2022-08-03T11:27:25.507Z,33.30
2022-08-03T11:29:56.674Z,33.90
2022-08-03T11:32:48.694Z,33.70
2022-08-03T11:35:17.015Z,34.10
2022-08-03T11:38:04.765Z,33.80
2022-08-03T11:40:48.676Z,33.90
2022-08-03T11:43:21.930Z,34.10
2022-08-03T11:45:58.244Z,34.40
2022-08-03T11:48:26.990Z,34.40
2022-08-03T11:50:54.140Z,34.40
2022-08-03T11:53:21.269Z,34.50
2022-08-03T11:55:53.180Z,34.80
2022-08-03T11:58:58.315Z,34.90
2022-08-03T12:01:12.525Z,35.00
2022-08-03T12:03:39.759Z,34.70
2022-08-03T12:06:09.393Z,34.60
2022-08-03T12:08:36.573Z,34.50
2022-08-03T12:11:06.599Z,34.50
2022-08-03T12:14:26.988Z,34.20
2022-08-03T12:16:40.935Z,34.70
2022-08-03T12:19:11.951Z,34.60
2022-08-03T12:21:56.497Z,34.30
2022-08-03T12:24:25.033Z,34.80
2022-08-03T12:26:58.738Z,35.10
2022-08-03T12:29:26.870Z,35.00
2022-08-03T12:32:02.637Z,34.90
2022-08-03T12:35:04.982Z,34.90
2022-08-03T12:37:54.550Z,35.30
2022-08-03T12:40:56.774Z,35.60
2022-08-03T12:43:23.936Z,35.30
2022-08-03T12:45:51.082Z,34.90
2022-08-03T12:48:18.245Z,35.20
2022-08-03T12:50:45.447Z,35.60
2022-08-03T12:53:28.142Z,36.30
2022-08-03T12:56:05.878Z,36.20
2022-08-03T12:58:35.019Z,34.90
2022-08-03T13:01:09.878Z,35.80
2022-08-03T13:03:42.759Z,36.60
2022-08-03T13:06:11.382Z,36.50
2022-08-03T13:08:38.515Z,36.40
2022-08-03T13:11:57.982Z,35.20
2022-08-03T13:14:28.179Z,34.00
2022-08-03T13:16:55.364Z,34.70
2022-08-03T13:19:22.508Z,35.70
2022-08-03T13:22:01.367Z,35.70
2022-08-03T13:24:32.105Z,36.40
2022-08-03T13:26:59.687Z,36.40
2022-08-03T13:29:26.824Z,36.30
2022-08-03T13:31:53.973Z,36.00
2022-08-03T13:34:23.781Z,35.80
2022-08-03T13:37:09.321Z,35.90
2022-08-03T13:39:57.381Z,36.50
2022-08-03T13:42:24.381Z,37.00
2022-08-03T13:44:51.525Z,36.90
2022-08-03T13:47:20.137Z,37.10
2022-08-03T13:50:00.477Z,37.20
2022-08-03T13:52:32.858Z,37.00
2022-08-03T13:55:00.526Z,36.50
2022-08-03T13:58:02.244Z,36.50
2022-08-03T14:00:26.608Z,36.20
2022-08-03T14:03:15.309Z,36.10
2022-08-03T14:05:42.902Z,35.80
2022-08-03T14:08:10.391Z,36.40
2022-08-03T14:10:38.058Z,37.20
2022-08-03T14:13:05.370Z,37.40
2022-08-03T14:15:37.742Z,37.70
2022-08-03T14:18:15.323Z,37.00
2022-08-03T14:20:49.996Z,37.60
2022-08-03T14:23:21.461Z,37.50
2022-08-03T14:25:52.558Z,36.50
2022-08-03T14:28:20.927Z,35.90
2022-08-03T14:30:48.605Z,36.50
2022-08-03T14:33:15.901Z,36.20
2022-08-03T14:35:43.317Z,36.40
2022-08-03T14:38:10.484Z,35.50
2022-08-03T14:40:37.690Z,35.60
2022-08-03T14:43:04.900Z,35.20
2022-08-03T14:45:32.059Z,36.20
2022-08-03T14:50:28.954Z,36.40
2022-08-03T14:50:51.727Z,36.80
2022-08-03T14:53:19.656Z,36.80
2022-08-03T14:55:50.900Z,36.50
2022-08-03T14:58:21.426Z,36.80
2022-08-03T15:00:49.842Z,37.00
2022-08-03T15:03:17.609Z,35.60
2022-08-03T15:05:44.938Z,36.30
2022-08-03T15:08:12.090Z,37.30
2022-08-03T15:10:44.039Z,37.90
2022-08-03T15:13:15.378Z,37.70
2022-08-03T15:15:42.523Z,38.30
2022-08-03T15:18:09.677Z,38.40
2022-08-03T15:20:44.305Z,39.00
2022-08-03T15:23:13.034Z,38.70
2022-08-03T15:26:04.088Z,38.70
2022-08-03T15:28:27.308Z,39.60
2022-08-03T15:30:54.556Z,39.90
2022-08-03T15:33:21.715Z,38.70
2022-08-03T15:35:49.805Z,39.20
2022-08-03T15:38:17.369Z,38.80
2022-08-03T15:40:44.697Z,39.10
2022-08-03T15:43:11.868Z,38.70
2022-08-03T15:45:40.538Z,38.20
2022-08-03T15:48:09.098Z,38.20
2022-08-03T15:50:36.312Z,38.30
2022-08-03T15:53:03.677Z,38.20
2022-08-03T15:55:31.464Z,39.20
2022-08-03T15:59:11.423Z,39.10
2022-08-03T16:00:45.791Z,38.50
2022-08-03T16:03:12.994Z,37.60
2022-08-03T16:05:40.129Z,37.80
2022-08-03T16:08:11.814Z,37.30
2022-08-03T16:10:41.271Z,37.40
2022-08-03T16:13:08.508Z,37.10
2022-08-03T16:15:38.557Z,36.90
2022-08-03T16:18:06.630Z,37.00
2022-08-03T16:20:35.397Z,36.40
2022-08-03T16:23:07.016Z,36.20
2022-08-03T16:25:39.376Z,36.10
2022-08-03T16:28:13.457Z,35.90
2022-08-03T16:30:43.939Z,35.80
2022-08-03T16:33:11.421Z,35.50
2022-08-03T16:35:43.887Z,35.50
2022-08-03T16:38:15.238Z,35.40
2022-08-03T16:40:46.923Z,35.40
2022-08-03T16:43:18.990Z,35.20
2022-08-03T16:45:46.753Z,35.20
2022-08-03T16:48:14.434Z,35.10
2022-08-03T16:50:41.604Z,34.80
2022-08-03T16:53:09.794Z,34.80
2022-08-03T16:55:43.479Z,35.10
2022-08-03T16:58:34.432Z,34.90
2022-08-03T17:01:20.751Z,35.10
2022-08-03T17:04:01.870Z,35.10
2022-08-03T17:06:34.262Z,34.80
2022-08-03T17:09:03.595Z,34.70
2022-08-03T17:11:35.773Z,34.10
2022-08-03T17:14:09.168Z,34.30
2022-08-03T17:16:52.899Z,34.60
2022-08-03T17:19:32.255Z,34.60
2022-08-03T17:22:04.954Z,34.90
2022-08-03T17:24:35.666Z,34.80
2022-08-03T17:28:41.997Z,34.80
2022-08-03T17:29:58.525Z,35.10
2022-08-03T17:32:26.564Z,35.10
2022-08-03T17:34:54.073Z,34.90
2022-08-03T17:37:50.128Z,34.80
2022-08-03T17:40:10.897Z,34.40
2022-08-03T17:42:43.293Z,34.50
2022-08-03T17:45:15.649Z,34.50
2022-08-03T17:47:43.840Z,34.50
2022-08-03T17:50:23.456Z,34.50
2022-08-03T17:53:34.400Z,34.50
2022-08-03T17:56:45.170Z,34.50
2022-08-03T17:59:51.537Z,34.40
2022-08-03T18:06:12.102Z,34.30
2022-08-03T18:08:24.875Z,33.80
2022-08-03T18:11:09.682Z,34.20
2022-08-03T18:14:00.797Z,34.30
2022-08-03T18:16:28.524Z,34.30
2022-08-03T18:18:55.662Z,34.10
2022-08-03T18:21:24.068Z,34.00
2022-08-03T18:23:52.291Z,34.00
2022-08-03T18:26:19.471Z,34.00
2022-08-03T18:28:46.654Z,33.90
2022-08-03T18:31:59.944Z,33.90
2022-08-03T18:34:19.211Z,33.70
2022-08-03T18:36:50.383Z,33.50
2022-08-03T18:39:17.846Z,33.20
2022-08-03T18:41:46.972Z,33.10
2022-08-03T18:44:52.474Z,33.10
2022-08-03T18:47:17.053Z,33.10
2022-08-03T18:50:03.133Z,33.10
2022-08-03T18:52:45.977Z,32.90
2022-08-03T18:55:32.753Z,32.80
2022-08-03T18:58:17.700Z,32.60
2022-08-03T19:00:54.329Z,32.50
2022-08-03T19:03:41.610Z,32.00
2022-08-03T19:06:14.611Z,31.70
2022-08-03T19:08:48.064Z,31.60
2022-08-03T19:11:17.651Z,31.40
2022-08-03T19:13:50.187Z,31.30
2022-08-03T19:16:22.147Z,31.10
2022-08-03T19:18:50.131Z,31.00
2022-08-03T19:21:17.845Z,31.00
2022-08-03T19:23:45.297Z,31.00
2022-08-03T19:26:29.909Z,30.90
2022-08-03T19:28:58.617Z,30.80
2022-08-03T19:31:30.739Z,30.80
2022-08-03T19:33:59.821Z,30.70
2022-08-03T19:36:28.677Z,30.60
2022-08-03T19:38:56.397Z,30.50
2022-08-03T19:41:31.176Z,30.50
2022-08-03T19:44:11.406Z,30.40
2022-08-03T19:46:41.558Z,30.50
2022-08-03T19:49:14.582Z,30.50
2022-08-03T19:52:02.451Z,30.40
2022-08-03T19:54:52.989Z,30.30
2022-08-03T19:57:20.877Z,30.10
2022-08-03T19:59:50.573Z,30.20
2022-08-03T20:02:26.836Z,30.20
2022-08-03T20:04:59.815Z,30.10
2022-08-03T20:07:28.936Z,30.20
2022-08-03T20:09:59.514Z,30.20
2022-08-03T20:12:29.366Z,30.20
2022-08-03T20:14:57.093Z,30.00
2022-08-03T20:17:54.484Z,29.90
2022-08-03T20:20:11.995Z,29.80
2022-08-03T20:22:41.911Z,29.70
2022-08-03T20:25:10.670Z,29.70
2022-08-03T20:28:06.721Z,29.60
2022-08-03T20:30:27.412Z,29.50
2022-08-03T20:32:54.717Z,29.50
2022-08-03T20:35:21.893Z,29.60
2022-08-03T20:37:49.027Z,29.60
2022-08-03T20:40:16.178Z,29.60
2022-08-03T20:42:43.351Z,29.50
2022-08-03T20:45:13.955Z,29.40
2022-08-03T20:47:50.286Z,29.50
2022-08-03T20:50:18.145Z,29.60
2022-08-03T20:52:49.679Z,29.70
2022-08-03T20:55:18.676Z,29.70
2022-08-03T20:57:49.260Z,29.80
2022-08-03T21:00:19.530Z,29.70
2022-08-03T21:02:49.381Z,29.50
2022-08-03T21:05:16.717Z,29.50
2022-08-03T21:08:05.255Z,29.40
2022-08-03T21:10:37.987Z,29.20
2022-08-03T21:13:17.086Z,29.00
2022-08-03T21:16:11.247Z,29.00
2022-08-03T21:18:36.077Z,29.10
2022-08-03T21:21:03.480Z,29.20
2022-08-03T21:23:40.130Z,29.30
2022-08-03T21:26:16.742Z,29.30
2022-08-03T21:28:43.966Z,29.20
2022-08-03T21:31:11.233Z,29.20
2022-08-03T21:33:38.704Z,29.00
2022-08-03T21:36:08.095Z,28.90
2022-08-03T21:38:36.014Z,28.90
2022-08-03T21:41:03.314Z,28.90
2022-08-03T21:43:30.566Z,28.90
2022-08-03T21:45:58.893Z,28.80
2022-08-03T21:48:26.592Z,28.90
2022-08-03T21:50:54.008Z,28.80
2022-08-03T21:53:21.374Z,28.90
2022-08-03T21:55:56.731Z,29.20
2022-08-03T21:58:31.391Z,29.60
2022-08-03T22:00:59.154Z,29.70
2022-08-03T22:03:26.361Z,29.80
2022-08-03T22:06:04.662Z,29.80
2022-08-03T22:08:33.816Z,29.80
2022-08-03T22:11:04.476Z,29.70
2022-08-03T22:13:43.565Z,29.80
2022-08-03T22:16:11.892Z,29.90
2022-08-03T22:18:39.608Z,29.80
2022-08-03T22:21:07.728Z,29.80
2022-08-03T22:23:45.922Z,29.70
2022-08-03T22:26:14.222Z,29.80
2022-08-03T22:28:41.920Z,29.80
2022-08-03T22:31:30.663Z,29.80
2022-08-03T22:33:56.201Z,29.90
2022-08-03T22:36:23.685Z,29.90
2022-08-03T22:38:51.301Z,29.70
2022-08-03T22:41:18.634Z,29.70
2022-08-03T22:43:45.846Z,29.50
2022-08-03T22:46:18.271Z,29.60
2022-08-03T22:48:45.899Z,29.40
2022-08-03T22:51:14.183Z,29.30
2022-08-03T22:53:41.473Z,29.40
2022-08-03T22:56:08.896Z,29.40
2022-08-03T22:58:36.130Z,29.40
2022-08-03T23:01:04.539Z,29.20
2022-08-03T23:03:58.608Z,29.20
2022-08-03T23:06:19.916Z,29.10
2022-08-03T23:08:47.400Z,29.10
2022-08-03T23:11:14.563Z,29.20
2022-08-03T23:13:41.698Z,29.20
2022-08-03T23:16:08.866Z,29.10
2022-08-03T23:18:40.032Z,29.10
2022-08-03T23:21:11.380Z,29.20
2022-08-03T23:23:44.540Z,29.20
2022-08-03T23:26:15.273Z,29.30
2022-08-03T23:28:45.277Z,29.40
2022-08-03T23:31:12.729Z,29.60
2022-08-03T23:33:39.898Z,29.50
2022-08-03T23:36:22.700Z,29.50
2022-08-03T23:38:54.280Z,29.40
2022-08-03T23:41:22.066Z,29.50
2022-08-03T23:43:53.700Z,29.60
2022-08-03T23:46:22.106Z,29.60
2022-08-03T23:48:50.133Z,29.60
2022-08-03T23:51:23.974Z,29.50
2022-08-03T23:53:51.822Z,29.50
2022-08-03T23:56:21.980Z,29.50
2022-08-03T23:58:53.396Z,29.70
